Time;durP1;ratioP1;P1;durP2;ratioP2;P2;SDS_P1;SDS_P2;PMS_P1;PMS_P2;Temp;Humidity;BMP_temperature;BMP_pressure;BME280_temperature;BME280_humidity;BME280_pressure;Samples;Min_cycle;Max_cycle;Signal;HPM_P1;HPM_P2
2023/03/23 00:00:59;;;;;;;12.30;6.60;;;11.40;99.90;;;;;;6247152;23;20169;-83
2023/03/23 00:03:28;;;;;;;9.57;5.67;;;11.40;99.90;;;;;;6247262;23;20601;-82
2023/03/23 00:05:59;;;;;;;10.73;5.70;;;11.40;99.90;;;;;;6246743;22;20203;-84
2023/03/23 00:08:26;;;;;;;10.40;5.00;;;11.50;99.90;;;;;;6247118;22;20169;-85
2023/03/23 00:10:56;;;;;;;7.27;5.67;;;11.50;99.90;;;;;;6247099;23;20180;-83
2023/03/23 00:13:23;;;;;;;8.43;4.77;;;11.60;99.90;;;;;;6247238;23;20227;-85
2023/03/23 00:15:51;;;;;;;9.23;4.70;;;11.60;99.90;;;;;;6245922;23;20165;-85
2023/03/23 00:18:23;;;;;;;8.50;4.93;;;11.70;99.90;;;;;;6247138;23;20178;-85
2023/03/23 00:20:51;;;;;;;8.27;5.17;;;11.70;99.90;;;;;;6247950;23;20537;-84
2023/03/23 00:23:19;;;;;;;12.67;4.33;;;11.70;99.90;;;;;;6247492;23;20646;-86
2023/03/23 00:25:48;;;;;;;8.63;5.00;;;11.70;99.90;;;;;;6247463;23;20177;-85
2023/03/23 00:28:15;;;;;;;9.77;4.80;;;11.80;99.90;;;;;;6247501;23;20558;-85
2023/03/23 00:30:44;;;;;;;5.70;4.03;;;11.80;99.90;;;;;;6247162;23;20177;-85
2023/03/23 00:33:13;;;;;;;5.73;3.60;;;11.80;99.90;;;;;;6246855;23;20542;-84
2023/03/23 00:35:44;;;;;;;7.57;4.20;;;11.80;99.90;;;;;;6246621;23;20174;-84
2023/03/23 00:38:11;;;;;;;10.13;5.50;;;11.80;99.90;;;;;;6246174;23;20170;-85
2023/03/23 00:40:37;;;;;;;15.43;5.03;;;11.80;99.90;;;;;;6247029;23;20282;-85
2023/03/23 00:43:04;;;;;;;12.67;4.30;;;11.80;99.90;;;;;;6246710;23;20171;-82
2023/03/23 00:45:34;;;;;;;12.93;4.60;;;11.80;99.90;;;;;;6246170;23;20593;-82
2023/03/23 00:48:04;;;;;;;10.80;4.70;;;11.80;99.90;;;;;;6247541;23;20223;-83
2023/03/23 00:50:31;;;;;;;11.90;4.30;;;11.80;99.90;;;;;;6245398;23;20181;-79
2023/03/23 00:52:59;;;;;;;9.23;3.70;;;11.80;99.90;;;;;;6246037;23;20264;-83
2023/03/23 00:55:26;;;;;;;6.33;3.50;;;11.80;99.90;;;;;;6245983;23;20176;-82
2023/03/23 00:57:53;;;;;;;6.37;3.30;;;11.80;99.90;;;;;;6246400;22;20276;-83
2023/03/23 01:00:22;;;;;;;7.47;2.90;;;11.80;99.90;;;;;;6246715;22;20176;-83
2023/03/23 01:02:51;;;;;;;10.90;3.10;;;11.80;99.90;;;;;;6246562;23;20169;-84
2023/03/23 01:05:18;;;;;;;5.07;2.23;;;11.80;99.90;;;;;;6246553;23;20296;-84
2023/03/23 01:07:45;;;;;;;7.07;3.00;;;11.90;99.90;;;;;;6246543;23;20248;-82
2023/03/23 01:10:16;;;;;;;5.60;2.30;;;11.90;99.90;;;;;;6247529;23;20222;-83
2023/03/23 01:12:44;;;;;;;4.53;2.40;;;11.90;99.90;;;;;;6247410;22;20172;-84
2023/03/23 01:15:15;;;;;;;5.10;2.50;;;12.00;99.90;;;;;;6246969;22;20201;-84
2023/03/23 01:17:43;;;;;;;6.07;2.43;;;12.00;99.90;;;;;;6246664;23;20165;-84
2023/03/23 01:20:11;;;;;;;7.23;2.30;;;12.00;99.90;;;;;;6246197;23;20492;-83
2023/03/23 01:22:38;;;;;;;4.80;2.37;;;12.00;99.90;;;;;;6246080;23;20169;-83
2023/03/23 01:25:06;;;;;;;6.43;2.37;;;12.00;99.90;;;;;;6245837;23;20173;-80
2023/03/23 01:27:34;;;;;;;5.20;2.27;;;12.10;99.90;;;;;;6245402;23;20176;-83
2023/03/23 01:30:01;;;;;;;6.27;2.37;;;12.10;99.90;;;;;;6245587;23;20169;-84
2023/03/23 01:32:29;;;;;;;5.67;2.77;;;12.10;99.90;;;;;;6245696;22;20246;-83
2023/03/23 01:34:56;;;;;;;5.33;2.20;;;12.10;99.90;;;;;;6246507;23;20194;-84
2023/03/23 01:37:26;;;;;;;9.87;3.30;;;12.10;99.90;;;;;;6246372;23;20166;-85
2023/03/23 01:39:54;;;;;;;4.97;1.97;;;12.20;99.90;;;;;;6246714;23;20227;-83
2023/03/23 01:42:23;;;;;;;3.43;1.90;;;12.20;99.90;;;;;;6246207;23;20161;-83
2023/03/23 01:45:27;;;;;;;4.47;1.90;;;12.20;99.90;;;;;;6246733;23;20177;-82
2023/03/23 01:48:00;;;;;;;5.93;2.07;;;12.10;99.90;;;;;;6246446;23;20162;-81
2023/03/23 01:50:29;;;;;;;7.07;2.13;;;12.10;99.90;;;;;;6246833;23;20244;-83
2023/03/23 01:52:58;;;;;;;4.37;2.30;;;12.10;99.90;;;;;;6246535;23;20212;-83
2023/03/23 01:55:27;;;;;;;6.90;2.33;;;12.20;99.90;;;;;;6247206;23;20170;-83
2023/03/23 01:57:56;;;;;;;5.37;2.10;;;12.20;99.90;;;;;;6246443;22;20907;-83
2023/03/23 02:00:25;;;;;;;4.97;2.10;;;12.20;99.90;;;;;;6245947;23;20170;-83
2023/03/23 02:02:53;;;;;;;5.17;1.93;;;12.10;99.90;;;;;;6245479;23;20490;-83
2023/03/23 02:05:28;;;;;;;9.67;2.93;;;12.20;99.90;;;;;;6246848;23;20193;-81
2023/03/23 02:07:55;;;;;;;6.43;2.30;;;12.20;99.90;;;;;;6246793;23;20631;-85
2023/03/23 02:10:22;;;;;;;8.43;2.53;;;12.20;99.90;;;;;;6246368;23;20252;-85
2023/03/23 02:12:49;;;;;;;11.17;2.80;;;12.10;99.90;;;;;;6246042;23;20169;-82
2023/03/23 02:15:16;;;;;;;6.73;2.70;;;12.10;99.90;;;;;;6246607;23;20196;-86
2023/03/23 02:17:49;;;;;;;8.87;2.80;;;12.10;99.90;;;;;;6247535;23;20169;-88
2023/03/23 02:20:34;;;;;;;7.90;2.43;;;12.00;99.90;;;;;;6247262;23;20169;-88
2023/03/23 02:23:28;;;;;;;9.77;3.13;;;12.00;99.90;;;;;;6247255;23;20162;-87
2023/03/23 02:26:13;;;;;;;6.10;2.73;;;11.90;99.90;;;;;;6231643;22;20173;-88
2023/03/23 02:29:06;;;;;;;6.20;3.17;;;11.90;99.90;;;;;;6246895;23;20236;-90
2023/03/23 02:31:48;;;;;;;6.63;2.50;;;11.90;99.90;;;;;;6232156;22;20196;-90
2023/03/23 02:34:19;;;;;;;6.47;2.63;;;11.80;99.90;;;;;;6247780;23;20224;-88
2023/03/23 02:36:51;;;;;;;7.07;2.67;;;11.80;99.90;;;;;;6247040;23;20188;-91
2023/03/23 02:39:22;;;;;;;8.63;2.87;;;11.80;99.90;;;;;;6247463;23;20193;-88
2023/03/23 02:41:53;;;;;;;6.13;2.70;;;11.80;99.90;;;;;;6247086;23;20608;-91
2023/03/23 02:44:21;;;;;;;7.83;3.03;;;11.80;99.90;;;;;;6247463;23;20174;-88
2023/03/23 02:46:49;;;;;;;7.60;3.03;;;11.80;99.90;;;;;;6247295;23;20252;-88
2023/03/23 02:49:20;;;;;;;9.93;3.03;;;11.80;99.90;;;;;;6247045;23;20170;-87
2023/03/23 02:51:49;;;;;;;10.60;3.53;;;11.80;99.90;;;;;;6246884;23;20168;-86
2023/03/23 02:54:18;;;;;;;7.60;2.90;;;11.80;99.90;;;;;;6247433;23;20197;-86
2023/03/23 02:56:46;;;;;;;10.80;3.27;;;11.80;99.90;;;;;;6246116;22;20193;-87
2023/03/23 02:59:13;;;;;;;9.77;2.90;;;11.80;99.90;;;;;;6247137;23;20171;-88
2023/03/23 03:01:58;;;;;;;12.33;3.43;;;11.70;99.90;;;;;;6246777;23;20260;-86
2023/03/23 03:04:29;;;;;;;10.77;2.70;;;11.70;99.90;;;;;;6246751;22;20197;-85
2023/03/23 03:07:15;;;;;;;7.70;2.73;;;11.70;99.90;;;;;;6246868;23;20175;-88
2023/03/23 03:09:48;;;;;;;10.47;2.97;;;11.70;99.90;;;;;;6246659;23;20208;-88
2023/03/23 03:12:21;;;;;;;8.93;3.23;;;11.60;99.90;;;;;;6247077;23;20192;-85
2023/03/23 03:14:55;;;;;;;11.77;2.93;;;11.60;99.90;;;;;;6245706;23;20224;-86
2023/03/23 03:17:24;;;;;;;12.23;3.70;;;11.60;99.90;;;;;;6246024;23;20162;-83
2023/03/23 03:19:58;;;;;;;9.80;3.83;;;11.60;99.90;;;;;;6246168;23;20201;-86
2023/03/23 03:22:29;;;;;;;8.00;3.57;;;11.60;99.90;;;;;;6246966;23;20158;-86
2023/03/23 03:24:58;;;;;;;12.67;3.73;;;11.60;99.90;;;;;;6247731;23;20519;-87
2023/03/23 03:27:26;;;;;;;8.20;3.23;;;11.50;99.90;;;;;;6247925;23;20754;-85
2023/03/23 03:29:58;;;;;;;7.97;3.20;;;11.50;99.90;;;;;;6247473;23;20192;-83
2023/03/23 03:32:32;;;;;;;11.50;3.10;;;11.50;99.90;;;;;;6247856;23;20169;-84
2023/03/23 03:35:03;;;;;;;13.67;3.87;;;11.50;99.90;;;;;;6247829;23;20220;-84
2023/03/23 03:37:37;;;;;;;12.93;3.70;;;11.50;99.90;;;;;;6248563;23;20166;-84
2023/03/23 03:40:10;;;;;;;19.63;4.20;;;11.40;99.90;;;;;;6247859;23;20169;-85
2023/03/23 03:42:37;;;;;;;19.03;6.10;;;11.40;99.90;;;;;;6248341;23;20253;-85
2023/03/23 03:45:05;;;;;;;18.07;5.60;;;11.30;99.90;;;;;;6248137;23;20244;-87
2023/03/23 03:47:32;;;;;;;21.17;5.37;;;11.30;99.90;;;;;;6248310;23;20196;-84
2023/03/23 03:50:00;;;;;;;16.80;4.97;;;11.20;99.90;;;;;;6247590;23;20598;-82
2023/03/23 03:52:28;;;;;;;22.10;6.13;;;11.20;99.90;;;;;;6247385;23;20252;-85
2023/03/23 03:54:55;;;;;;;21.63;5.13;;;11.20;99.90;;;;;;6248035;23;20196;-84
2023/03/23 03:57:22;;;;;;;21.73;5.70;;;11.20;99.90;;;;;;6247154;22;20193;-84
2023/03/23 03:59:49;;;;;;;19.73;8.00;;;11.10;99.90;;;;;;6248097;23;20495;-85
2023/03/23 04:02:19;;;;;;;21.83;6.77;;;11.10;99.90;;;;;;6248248;23;20196;-84
2023/03/23 04:04:47;;;;;;;31.40;7.93;;;11.10;99.90;;;;;;6247418;22;20198;-82
2023/03/23 04:07:16;;;;;;;21.33;4.60;;;11.10;99.90;;;;;;6247634;22;20184;-81
2023/03/23 04:09:43;;;;;;;18.20;4.57;;;11.10;99.90;;;;;;6247533;23;20563;-83
2023/03/23 04:12:10;;;;;;;17.63;5.37;;;11.00;99.90;;;;;;6247438;23;20166;-85
2023/03/23 04:14:37;;;;;;;29.07;4.77;;;11.00;99.90;;;;;;6247113;23;20632;-82
2023/03/23 04:17:03;;;;;;;25.40;4.70;;;11.00;99.90;;;;;;6247204;23;20261;-81
2023/03/23 04:19:33;;;;;;;20.67;4.70;;;11.00;99.90;;;;;;6247658;23;20168;-83
2023/03/23 04:22:00;;;;;;;16.13;4.73;;;10.90;99.90;;;;;;6247389;23;20239;-84
2023/03/23 04:24:31;;;;;;;17.93;4.53;;;10.90;99.90;;;;;;6246753;23;20172;-81
2023/03/23 04:26:58;;;;;;;21.30;4.60;;;10.90;99.90;;;;;;6246860;23;20550;-80
2023/03/23 04:29:26;;;;;;;24.47;4.73;;;10.90;99.90;;;;;;6247352;23;20177;-77
2023/03/23 04:31:55;;;;;;;23.67;4.43;;;10.90;99.90;;;;;;6246367;23;20242;-81
2023/03/23 04:34:22;;;;;;;19.10;4.70;;;10.80;99.90;;;;;;6247071;23;20251;-82
2023/03/23 04:36:50;;;;;;;20.33;4.80;;;10.90;99.90;;;;;;6246557;23;20268;-82
2023/03/23 04:39:17;;;;;;;20.50;5.03;;;10.80;99.90;;;;;;6246051;23;20177;-82
2023/03/23 04:41:46;;;;;;;12.87;3.70;;;10.80;99.90;;;;;;6245917;23;20212;-83
2023/03/23 04:44:17;;;;;;;22.30;4.90;;;10.80;99.90;;;;;;6246351;23;20162;-83
2023/03/23 04:46:49;;;;;;;26.73;6.80;;;10.80;99.90;;;;;;6247318;23;20168;-80
2023/03/23 04:49:21;;;;;;;23.97;6.13;;;10.70;99.90;;;;;;6247060;23;20188;-83
2023/03/23 04:51:50;;;;;;;20.50;5.93;;;10.70;99.90;;;;;;6246586;23;20172;-82
2023/03/23 04:54:17;;;;;;;22.27;5.37;;;10.70;99.90;;;;;;6246324;23;20193;-82
2023/03/23 04:56:45;;;;;;;19.00;4.90;;;10.70;99.90;;;;;;6246575;22;20200;-79
2023/03/23 04:59:13;;;;;;;28.60;5.30;;;10.70;99.90;;;;;;6246837;23;20257;-83
2023/03/23 05:01:45;;;;;;;30.30;6.53;;;10.70;99.90;;;;;;6246597;23;20215;-84
2023/03/23 05:04:12;;;;;;;20.57;5.20;;;10.70;99.90;;;;;;6249686;22;20454;-84
2023/03/23 05:06:40;;;;;;;29.67;7.70;;;10.70;99.90;;;;;;6243549;22;20228;-83
2023/03/23 05:09:07;;;;;;;32.90;6.27;;;10.60;99.90;;;;;;6246209;23;20220;-83
2023/03/23 05:11:34;;;;;;;25.93;6.13;;;10.60;99.90;;;;;;6246123;23;20624;-83
2023/03/23 05:14:04;;;;;;;25.07;5.87;;;10.60;99.90;;;;;;6245996;23;20208;-82
2023/03/23 05:16:31;;;;;;;35.60;6.77;;;10.60;99.90;;;;;;6247052;23;20169;-83
2023/03/23 05:18:58;;;;;;;34.17;6.30;;;10.60;99.90;;;;;;6246646;23;20244;-81
2023/03/23 05:21:26;;;;;;;32.87;8.13;;;10.60;99.90;;;;;;6246339;23;20169;-84
2023/03/23 05:23:56;;;;;;;32.97;6.90;;;10.50;99.90;;;;;;6245983;23;20169;-81
2023/03/23 05:26:24;;;;;;;32.40;6.33;;;10.50;99.90;;;;;;6245661;22;20172;-81
2023/03/23 05:28:53;;;;;;;29.37;7.47;;;10.50;99.90;;;;;;6246338;23;20193;-82
2023/03/23 05:31:21;;;;;;;25.40;6.60;;;10.50;99.90;;;;;;6246167;23;20770;-83
2023/03/23 05:33:48;;;;;;;29.47;6.63;;;10.50;99.90;;;;;;6245617;23;20252;-83
2023/03/23 05:36:15;;;;;;;35.73;6.20;;;10.40;99.90;;;;;;6247062;22;20237;-82
2023/03/23 05:38:45;;;;;;;29.17;6.33;;;10.40;99.90;;;;;;6246705;23;20173;-83
2023/03/23 05:41:12;;;;;;;30.97;6.70;;;10.30;99.90;;;;;;6245831;23;20175;-84
2023/03/23 05:43:39;;;;;;;27.00;6.00;;;10.30;99.90;;;;;;6246494;23;20325;-84
2023/03/23 05:46:06;;;;;;;28.97;6.10;;;10.30;99.90;;;;;;6246365;23;20172;-81
2023/03/23 05:48:35;;;;;;;26.27;5.33;;;10.20;99.90;;;;;;6245513;23;20173;-82
2023/03/23 05:51:02;;;;;;;29.00;7.20;;;10.20;99.90;;;;;;6246316;23;20248;-84
2023/03/23 05:53:29;;;;;;;24.47;6.13;;;10.20;99.90;;;;;;6245774;23;20172;-83
2023/03/23 05:55:59;;;;;;;29.50;6.23;;;10.20;99.90;;;;;;6245748;22;20243;-81
2023/03/23 05:58:26;;;;;;;30.37;6.97;;;10.20;99.90;;;;;;6246443;23;20252;-83
2023/03/23 06:00:53;;;;;;;32.53;6.80;;;10.20;99.90;;;;;;6245882;23;20498;-77
2023/03/23 06:03:20;;;;;;;33.13;7.03;;;10.20;99.90;;;;;;6245255;22;20580;-82
2023/03/23 06:05:50;;;;;;;34.80;7.97;;;10.20;99.90;;;;;;6246066;22;20193;-80
2023/03/23 06:08:16;;;;;;;28.63;6.67;;;10.20;99.90;;;;;;6245557;23;20227;-81
2023/03/23 06:10:43;;;;;;;33.70;7.10;;;10.30;99.90;;;;;;6245828;23;20227;-81
2023/03/23 06:13:10;;;;;;;48.47;9.53;;;10.30;99.90;;;;;;6245320;22;20499;-81
2023/03/23 06:15:37;;;;;;;41.37;9.20;;;10.20;99.90;;;;;;6245879;23;20220;-82
2023/03/23 06:18:05;;;;;;;38.80;8.17;;;10.30;99.90;;;;;;6245126;23;20256;-75
2023/03/23 06:20:32;;;;;;;42.30;8.90;;;10.30;99.90;;;;;;6244721;23;20193;-82
2023/03/23 06:23:01;;;;;;;38.10;8.80;;;10.20;99.90;;;;;;6244124;23;20173;-78
2023/03/23 06:25:28;;;;;;;35.53;9.53;;;10.20;99.90;;;;;;6244047;23;20507;-76
2023/03/23 06:27:55;;;;;;;44.20;9.23;;;10.20;99.90;;;;;;6244700;23;20181;-76
2023/03/23 06:30:22;;;;;;;40.87;9.77;;;10.20;99.90;;;;;;6244744;23;20200;-76
2023/03/23 06:32:50;;;;;;;55.80;9.43;;;10.20;99.90;;;;;;6244094;22;20172;-76
2023/03/23 06:35:17;;;;;;;39.77;9.97;;;10.20;99.90;;;;;;6244360;22;20201;-74
2023/03/23 06:37:44;;;;;;;41.13;9.10;;;10.20;99.90;;;;;;6244945;22;20218;-75
2023/03/23 06:40:12;;;;;;;41.33;9.50;;;10.20;99.90;;;;;;6244475;23;20165;-77
2023/03/23 06:42:39;;;;;;;44.77;9.40;;;10.20;99.90;;;;;;6243994;23;20830;-76
2023/03/23 06:45:07;;;;;;;43.77;9.73;;;10.20;99.90;;;;;;6243425;23;20173;-75
2023/03/23 06:47:34;;;;;;;39.77;9.67;;;10.30;99.90;;;;;;6244471;23;20402;-77
2023/03/23 06:50:01;;;;;;;34.37;7.87;;;10.30;99.90;;;;;;6244436;23;20737;-82
2023/03/23 06:52:28;;;;;;;38.43;8.13;;;10.30;99.90;;;;;;6244266;23;20184;-75
2023/03/23 06:54:55;;;;;;;45.13;9.17;;;10.40;99.90;;;;;;6244188;23;20594;-79
2023/03/23 06:57:23;;;;;;;42.13;8.17;;;10.40;99.90;;;;;;6244352;22;20193;-81
2023/03/23 06:59:50;;;;;;;45.77;10.47;;;10.40;99.90;;;;;;6246219;23;20161;-82
2023/03/23 07:02:17;;;;;;;39.13;9.43;;;10.50;99.90;;;;;;6246137;23;20546;-80
2023/03/23 07:04:45;;;;;;;37.53;10.57;;;10.40;99.90;;;;;;6245889;22;20253;-81
2023/03/23 07:07:14;;;;;;;37.77;7.77;;;10.40;99.90;;;;;;6246809;23;20235;-81
2023/03/23 07:09:42;;;;;;;44.67;9.57;;;10.50;99.90;;;;;;6246838;22;20197;-82
2023/03/23 07:12:09;;;;;;;33.10;7.53;;;10.50;99.90;;;;;;6247340;23;20176;-81
2023/03/23 07:14:37;;;;;;;39.37;8.27;;;10.50;99.90;;;;;;6248087;23;20286;-81
2023/03/23 07:17:05;;;;;;;42.33;9.50;;;10.50;99.90;;;;;;6246677;23;20235;-81
2023/03/23 07:19:32;;;;;;;46.50;10.70;;;10.50;99.90;;;;;;6247078;23;20170;-82
2023/03/23 07:21:59;;;;;;;52.10;10.10;;;10.50;99.90;;;;;;6247559;22;20173;-82
2023/03/23 07:24:28;;;;;;;43.50;10.10;;;10.50;99.90;;;;;;6247126;23;20173;-79
2023/03/23 07:26:55;;;;;;;42.03;8.67;;;10.60;99.90;;;;;;6246120;23;20170;-82
2023/03/23 07:29:22;;;;;;;35.53;9.57;;;10.60;99.90;;;;;;6247222;23;20184;-77
2023/03/23 07:31:51;;;;;;;44.60;8.97;;;10.60;99.90;;;;;;6246215;23;20257;-79
2023/03/23 07:34:18;;;;;;;38.60;9.77;;;10.60;99.90;;;;;;6246674;23;20211;-79
2023/03/23 07:36:46;;;;;;;42.33;10.70;;;10.50;99.90;;;;;;6245958;23;20583;-79
2023/03/23 07:39:13;;;;;;;37.50;9.63;;;10.50;99.90;;;;;;6246329;23;20204;-79
2023/03/23 07:41:40;;;;;;;34.93;8.13;;;10.50;99.90;;;;;;6245960;23;20170;-81
2023/03/23 07:44:07;;;;;;;36.33;9.37;;;10.50;99.90;;;;;;6246142;23;20256;-79
2023/03/23 07:46:34;;;;;;;43.50;8.20;;;10.60;99.90;;;;;;6246219;23;20531;-80
2023/03/23 07:49:05;;;;;;;38.10;7.70;;;10.60;99.90;;;;;;6245435;23;20706;-81
2023/03/23 07:51:32;;;;;;;36.53;8.40;;;10.60;99.90;;;;;;6246047;23;20166;-79
2023/03/23 07:53:59;;;;;;;35.40;8.07;;;10.60;99.90;;;;;;6242916;23;20186;-79
2023/03/23 07:56:26;;;;;;;34.87;8.00;;;10.60;99.90;;;;;;6243515;22;20578;-79
2023/03/23 07:58:53;;;;;;;35.03;9.20;;;10.70;99.90;;;;;;6244351;23;20280;-77
2023/03/23 08:01:34;;;;;;;39.57;7.20;;;10.70;99.90;;;;;;6243050;23;20444;-79
2023/03/23 08:04:02;;;;;;;27.60;6.67;;;10.70;99.90;;;;;;6244139;23;20204;-78
2023/03/23 08:06:29;;;;;;;31.23;7.27;;;10.70;99.90;;;;;;6243991;22;20221;-77
2023/03/23 08:08:56;;;;;;;36.30;7.67;;;10.70;99.90;;;;;;6243597;23;20244;-76
2023/03/23 08:11:23;;;;;;;31.20;7.70;;;10.70;99.90;;;;;;6244085;23;20231;-77
2023/03/23 08:13:50;;;;;;;33.40;8.50;;;10.80;99.90;;;;;;6244734;23;20173;-79
2023/03/23 08:16:18;;;;;;;36.17;8.30;;;10.80;99.90;;;;;;6245274;23;20659;-76
2023/03/23 08:18:45;;;;;;;29.80;6.83;;;10.90;99.90;;;;;;6245271;23;20710;-79
2023/03/23 08:21:14;;;;;;;30.43;6.27;;;10.90;99.90;;;;;;6245667;23;20566;-81
2023/03/23 08:23:41;;;;;;;22.23;6.00;;;10.90;99.90;;;;;;6245655;23;20205;-77
2023/03/23 08:26:09;;;;;;;30.20;6.40;;;11.00;99.90;;;;;;6245742;23;20240;-81
2023/03/23 08:28:37;;;;;;;29.30;5.80;;;11.10;99.90;;;;;;6245900;23;20173;-82
2023/03/23 08:31:07;;;;;;;29.20;6.07;;;11.10;99.90;;;;;;6245466;23;20212;-79
2023/03/23 08:33:34;;;;;;;27.63;6.40;;;11.10;99.90;;;;;;6246167;23;20185;-82
2023/03/23 08:36:02;;;;;;;29.33;6.33;;;11.20;99.90;;;;;;6246190;23;20190;-80
2023/03/23 08:38:32;;;;;;;26.97;5.73;;;11.20;99.90;;;;;;6245338;23;20223;-81
2023/03/23 08:40:59;;;;;;;27.43;6.47;;;11.30;99.90;;;;;;6245385;23;20172;-78
2023/03/23 08:43:27;;;;;;;25.60;4.73;;;11.40;99.90;;;;;;6245253;23;20170;-78
2023/03/23 08:45:54;;;;;;;18.73;5.57;;;11.50;99.90;;;;;;6245832;23;20236;-79
2023/03/23 08:48:22;;;;;;;20.47;4.87;;;11.60;99.90;;;;;;6245538;23;20192;-78
2023/03/23 08:50:49;;;;;;;23.30;4.80;;;11.70;99.90;;;;;;6245337;23;20180;-78
2023/03/23 08:53:16;;;;;;;21.80;5.03;;;11.80;99.90;;;;;;6245599;23;20195;-79
2023/03/23 08:55:45;;;;;;;23.00;4.70;;;11.90;99.90;;;;;;6245219;22;20598;-78
2023/03/23 08:58:11;;;;;;;22.60;4.73;;;11.90;99.90;;;;;;6245340;23;20197;-77
2023/03/23 09:00:39;;;;;;;25.27;4.83;;;12.00;99.90;;;;;;6245153;23;20617;-78
2023/03/23 09:03:06;;;;;;;17.50;4.87;;;12.10;99.90;;;;;;6245396;23;20252;-78
2023/03/23 09:05:33;;;;;;;19.53;4.20;;;12.20;99.90;;;;;;6244600;23;20205;-78
2023/03/23 09:08:00;;;;;;;20.10;5.27;;;12.20;99.90;;;;;;6242500;22;20227;-78
2023/03/23 09:10:29;;;;;;;20.40;5.50;;;12.20;99.90;;;;;;6245052;23;20205;-78
2023/03/23 09:12:58;;;;;;;24.53;5.27;;;12.30;99.90;;;;;;6244302;23;20174;-80
2023/03/23 09:15:25;;;;;;;20.87;5.00;;;12.30;99.90;;;;;;6245425;23;20174;-79
2023/03/23 09:17:53;;;;;;;25.33;4.57;;;12.40;99.90;;;;;;6244713;23;20531;-78
2023/03/23 09:20:23;;;;;;;18.80;4.73;;;12.50;99.90;;;;;;6244229;23;20169;-76
2023/03/23 09:22:52;;;;;;;18.37;4.37;;;12.50;99.90;;;;;;6244475;23;20199;-76
2023/03/23 09:25:21;;;;;;;23.93;4.97;;;12.60;99.90;;;;;;6245299;23;20169;-80
2023/03/23 09:27:52;;;;;;;20.53;4.70;;;12.70;99.90;;;;;;6244553;23;20168;-79
2023/03/23 09:30:21;;;;;;;24.93;4.90;;;12.70;99.90;;;;;;6245292;23;20253;-79
2023/03/23 09:32:49;;;;;;;19.33;4.13;;;12.80;99.90;;;;;;6245137;23;20260;-82
2023/03/23 09:35:17;;;;;;;20.87;4.87;;;12.80;99.90;;;;;;6245315;23;20173;-80
2023/03/23 09:37:45;;;;;;;19.00;4.23;;;12.80;99.90;;;;;;6245315;23;20201;-83
2023/03/23 09:40:18;;;;;;;16.33;4.17;;;12.90;99.90;;;;;;6245305;23;20257;-80
2023/03/23 09:42:56;;;;;;;22.00;5.77;;;13.00;99.90;;;;;;6245454;23;20168;-79
2023/03/23 09:45:30;;;;;;;20.83;4.60;;;13.00;99.90;;;;;;6245507;23;20161;-80
2023/03/23 09:48:17;;;;;;;23.47;4.87;;;13.10;99.90;;;;;;6244708;23;20758;-80
2023/03/23 09:50:48;;;;;;;25.93;5.07;;;13.20;99.90;;;;;;6245032;23;20161;-79
2023/03/23 09:53:20;;;;;;;29.97;5.60;;;13.30;99.90;;;;;;6244774;22;20193;-78
2023/03/23 09:55:48;;;;;;;21.90;4.43;;;13.30;99.90;;;;;;6244682;22;20249;-76
2023/03/23 09:58:23;;;;;;;22.97;5.67;;;13.40;99.90;;;;;;6244980;23;20173;-78
2023/03/23 10:00:58;;;;;;;29.30;4.90;;;13.40;99.90;;;;;;6244099;23;20276;-80
2023/03/23 10:03:31;;;;;;;19.33;6.70;;;13.50;99.90;;;;;;6245351;23;20164;-79
2023/03/23 10:05:58;;;;;;;21.07;4.53;;;13.50;99.90;;;;;;6244504;22;20263;-78
2023/03/23 10:08:34;;;;;;;18.97;4.63;;;13.60;99.90;;;;;;6244056;23;20189;-78
2023/03/23 10:11:04;;;;;;;25.57;6.37;;;13.70;99.90;;;;;;6245707;22;20168;-80
2023/03/23 10:13:55;;;;;;;19.20;5.03;;;13.80;99.90;;;;;;6245148;22;20165;-80
2023/03/23 10:16:28;;;;;;;24.20;4.97;;;13.80;99.90;;;;;;6242642;23;20193;-81
2023/03/23 10:19:01;;;;;;;21.83;4.97;;;13.80;99.90;;;;;;6244829;23;20489;-80
2023/03/23 10:21:31;;;;;;;34.33;6.97;;;13.80;99.90;;;;;;6244929;23;20248;-79
2023/03/23 10:24:00;;;;;;;19.07;5.30;;;13.90;99.90;;;;;;6244077;23;20550;-78
2023/03/23 10:26:37;;;;;;;21.83;5.60;;;13.90;99.90;;;;;;6240347;23;20260;-79
2023/03/23 10:29:13;;;;;;;18.87;4.93;;;13.90;99.90;;;;;;6244088;23;20238;-78
2023/03/23 10:31:46;;;;;;;21.33;5.50;;;14.00;99.90;;;;;;6245193;23;20203;-80
2023/03/23 10:34:18;;;;;;;23.77;5.53;;;14.00;99.90;;;;;;6245694;23;20168;-79
2023/03/23 10:36:57;;;;;;;24.80;5.03;;;14.00;99.90;;;;;;6246860;23;20189;-79
2023/03/23 10:39:28;;;;;;;16.30;3.83;;;14.00;99.90;;;;;;6246927;23;20235;-79
2023/03/23 10:41:55;;;;;;;21.53;4.23;;;14.00;99.90;;;;;;6246600;23;20161;-80
2023/03/23 10:44:25;;;;;;;21.27;5.23;;;14.20;99.90;;;;;;6246893;23;20189;-81
2023/03/23 10:46:59;;;;;;;19.43;5.07;;;14.30;99.90;;;;;;6248024;23;20248;-80
2023/03/23 10:49:31;;;;;;;20.30;4.20;;;14.30;99.90;;;;;;6247930;23;20243;-85
2023/03/23 10:52:04;;;;;;;18.30;4.50;;;14.20;99.90;;;;;;6248664;23;20170;-79
2023/03/23 10:54:39;;;;;;;27.50;5.70;;;14.40;99.90;;;;;;6248399;23;20173;-85
2023/03/23 10:57:20;;;;;;;18.53;4.57;;;14.50;99.90;;;;;;6247933;22;20204;-83
2023/03/23 10:59:47;;;;;;;20.47;5.13;;;14.60;99.90;;;;;;6248150;23;20204;-79
2023/03/23 11:02:19;;;;;;;19.63;4.73;;;14.70;99.90;;;;;;6247563;23;20174;-84
2023/03/23 11:04:48;;;;;;;23.80;4.83;;;14.70;99.90;;;;;;6247636;23;20240;-81
2023/03/23 11:07:22;;;;;;;21.13;5.73;;;14.70;99.90;;;;;;6247904;23;20162;-80
2023/03/23 11:09:54;;;;;;;18.07;4.47;;;14.80;99.90;;;;;;6247535;23;20166;-82
2023/03/23 11:12:22;;;;;;;20.80;5.03;;;14.70;99.90;;;;;;6248143;23;20260;-79
2023/03/23 11:14:50;;;;;;;21.93;5.27;;;14.80;99.90;;;;;;6247398;23;20324;-83
2023/03/23 11:17:25;;;;;;;26.03;4.47;;;14.70;99.90;;;;;;6247813;23;20197;-82
2023/03/23 11:19:54;;;;;;;19.70;5.17;;;14.70;99.90;;;;;;6247416;23;20166;-82
2023/03/23 11:22:27;;;;;;;28.80;7.20;;;14.80;99.90;;;;;;6246295;23;20179;-81
2023/03/23 11:24:58;;;;;;;20.80;5.10;;;14.80;99.90;;;;;;6246481;23;20248;-79
2023/03/23 11:27:26;;;;;;;17.00;5.17;;;14.80;99.90;;;;;;6246575;23;20539;-81
2023/03/23 11:29:55;;;;;;;21.20;4.97;;;14.90;99.90;;;;;;6246628;23;20439;-82
2023/03/23 11:32:27;;;;;;;25.17;5.37;;;14.90;99.90;;;;;;6246488;23;20572;-82
2023/03/23 11:34:58;;;;;;;15.27;4.80;;;14.90;99.90;;;;;;6246393;23;20180;-79
2023/03/23 11:37:31;;;;;;;25.13;5.17;;;15.00;99.90;;;;;;6246865;23;20208;-87
2023/03/23 11:40:00;;;;;;;15.13;4.83;;;15.10;99.90;;;;;;6247282;23;20158;-85
2023/03/23 11:42:35;;;;;;;25.27;5.77;;;15.20;99.90;;;;;;6248010;23;20205;-83
2023/03/23 11:45:16;;;;;;;23.87;5.93;;;15.30;99.90;;;;;;6249028;23;20430;-86
2023/03/23 11:47:57;;;;;;;20.27;5.20;;;15.50;99.90;;;;;;6248445;23;20538;-84
2023/03/23 11:50:27;;;;;;;18.93;4.03;;;15.60;99.90;;;;;;6246944;23;20193;-83
2023/03/23 11:53:03;;;;;;;15.83;4.70;;;15.60;99.90;;;;;;6247162;23;20601;-78
2023/03/23 11:55:36;;;;;;;22.48;5.13;;;15.60;99.90;;;;;;6247898;23;20162;-85
2023/03/23 11:58:13;;;;;;;25.25;5.53;;;15.70;99.90;;;;;;6248020;23;20479;-81
2023/03/23 12:00:46;;;;;;;19.10;5.77;;;15.80;99.90;;;;;;6246229;23;20180;-82
2023/03/23 12:03:16;;;;;;;23.77;5.27;;;15.90;99.90;;;;;;6246849;23;20270;-81
2023/03/23 12:05:50;;;;;;;22.52;5.80;;;16.00;99.90;;;;;;6246040;22;20521;-80
2023/03/23 12:08:30;;;;;;;20.48;5.05;;;16.00;99.90;;;;;;6245933;23;20161;-81
2023/03/23 12:11:05;;;;;;;19.55;4.97;;;16.10;99.90;;;;;;6246506;23;20168;-80
2023/03/23 12:13:52;;;;;;;18.80;5.32;;;16.10;99.90;;;;;;6246950;23;20165;-88
2023/03/23 12:16:25;;;;;;;20.45;4.65;;;16.20;99.90;;;;;;6245689;23;20180;-82
2023/03/23 12:19:02;;;;;;;21.80;4.35;;;16.20;99.90;;;;;;6246830;23;20236;-84
2023/03/23 12:21:36;;;;;;;19.00;4.80;;;16.10;99.90;;;;;;6246104;23;20219;-77
2023/03/23 12:24:13;;;;;;;17.52;4.28;;;16.00;99.90;;;;;;6247628;22;20189;-82
2023/03/23 12:26:47;;;;;;;17.83;3.93;;;16.00;99.90;;;;;;6248506;23;20161;-82
2023/03/23 12:29:43;;;;;;;16.45;4.30;;;16.00;99.90;;;;;;6245860;23;20170;-83
2023/03/23 12:32:32;;;;;;;16.37;4.37;;;16.10;99.90;;;;;;6242663;22;20173;-85
2023/03/23 12:35:10;;;;;;;18.52;4.25;;;16.10;99.90;;;;;;6245776;23;20628;-79
2023/03/23 12:37:48;;;;;;;15.70;4.53;;;16.10;99.90;;;;;;6245342;23;20181;-82
2023/03/23 12:40:33;;;;;;;17.50;4.55;;;16.00;99.90;;;;;;6246233;23;20209;-82
2023/03/23 12:43:06;;;;;;;17.48;4.22;;;16.00;99.90;;;;;;6245208;22;20197;-80
2023/03/23 12:45:55;;;;;;;15.77;4.13;;;16.00;99.90;;;;;;6246256;23;20166;-83
2023/03/23 12:48:25;;;;;;;12.68;4.00;;;15.90;99.90;;;;;;6247235;23;20173;-84
2023/03/23 12:51:11;;;;;;;20.80;4.20;;;16.00;99.90;;;;;;6246360;23;20177;-83
2023/03/23 12:53:45;;;;;;;14.73;4.40;;;16.10;99.90;;;;;;6247387;22;20169;-86